createdAt,value
2022-11-21T00:01:58.141Z,18.37
2022-11-21T00:04:42.725Z,17.20
2022-11-21T00:07:11.051Z,17.30
2022-11-21T00:09:47.511Z,14.87
2022-11-21T00:12:22.757Z,14.63
2022-11-21T00:14:55.538Z,16.00
2022-11-21T00:17:43.599Z,12.63
2022-11-21T00:20:34.144Z,14.73
2022-11-21T00:23:17.513Z,13.70
2022-11-21T00:26:00.128Z,14.97
2022-11-21T00:28:40.139Z,13.37
2022-11-21T00:31:08.454Z,16.10
2022-11-21T00:33:41.170Z,15.47
2022-11-21T00:36:20.639Z,16.93
2022-11-21T00:39:01.125Z,18.10
2022-11-21T00:41:38.601Z,17.37
2022-11-21T00:44:13.647Z,16.53
2022-11-21T00:46:51.653Z,17.87
2022-11-21T00:49:24.063Z,18.60
2022-11-21T00:52:04.082Z,16.83
2022-11-21T00:54:51.431Z,16.20
2022-11-21T00:57:22.986Z,14.63
2022-11-21T01:00:00.767Z,16.20
2022-11-21T01:02:35.040Z,15.30
2022-11-21T01:05:17.286Z,16.80
2022-11-21T01:07:56.086Z,14.77
2022-11-21T01:10:24.148Z,18.67
2022-11-21T01:12:52.287Z,17.63
2022-11-21T01:15:20.313Z,19.23
2022-11-21T01:17:49.783Z,17.00
2022-11-21T01:20:20.852Z,16.07
2022-11-21T01:22:50.586Z,17.57
2022-11-21T01:25:18.680Z,18.00
2022-11-21T01:27:46.679Z,14.53
2022-11-21T01:30:15.796Z,16.53
2022-11-21T01:32:51.468Z,16.27
2022-11-21T01:35:34.252Z,16.77
2022-11-21T01:38:13.147Z,17.07
2022-11-21T01:40:45.416Z,17.57
2022-11-21T01:43:22.232Z,14.03
2022-11-21T01:46:25.400Z,16.30
2022-11-21T01:49:01.565Z,18.37
2022-11-21T01:51:34.133Z,15.37
2022-11-21T01:54:09.889Z,15.60
2022-11-21T01:56:42.976Z,17.87
2022-11-21T01:59:15.784Z,15.20
2022-11-21T02:01:50.047Z,16.07
2022-11-21T02:04:23.172Z,15.87
2022-11-21T02:06:51.831Z,18.73
2022-11-21T02:09:22.059Z,17.37
2022-11-21T02:11:56.973Z,16.97
2022-11-21T02:14:36.076Z,18.90
2022-11-21T02:17:14.479Z,18.07
2022-11-21T02:19:51.656Z,16.97
2022-11-21T02:22:48.202Z,18.37
2022-11-21T02:25:38.295Z,18.77
2022-11-21T02:28:35.611Z,18.57
2022-11-21T02:31:13.513Z,19.87
2022-11-21T02:33:51.698Z,18.23
2022-11-21T02:36:44.800Z,17.10
2022-11-21T02:39:22.585Z,17.43
2022-11-21T02:42:06.643Z,16.83
2022-11-21T02:44:49.029Z,19.07
2022-11-21T02:47:46.538Z,19.90
2022-11-21T02:50:26.165Z,17.23
2022-11-21T02:53:09.097Z,18.77
2022-11-21T02:55:42.927Z,18.67
2022-11-21T02:58:26.187Z,18.47
2022-11-21T03:00:55.735Z,19.43
2022-11-21T03:03:27.116Z,19.13
2022-11-21T03:06:02.172Z,18.97
2022-11-21T03:08:33.378Z,19.10
2022-11-21T03:11:05.007Z,19.50
2022-11-21T03:13:41.821Z,19.10
2022-11-21T03:16:19.737Z,18.97
2022-11-21T03:19:03.171Z,18.83
2022-11-21T03:21:31.623Z,17.37
2022-11-21T03:24:03.337Z,18.83
2022-11-21T03:26:37.374Z,19.47
2022-11-21T03:29:14.207Z,19.67
2022-11-21T03:31:44.924Z,19.13
2022-11-21T03:34:19.538Z,21.47
2022-11-21T03:36:52.483Z,18.13
2022-11-21T03:39:37.846Z,17.57
2022-11-21T03:42:09.760Z,17.13
2022-11-21T03:44:45.239Z,21.00
2022-11-21T03:47:14.733Z,19.47
2022-11-21T03:49:48.752Z,17.97
2022-11-21T03:52:31.130Z,18.33
2022-11-21T03:55:02.171Z,19.53
2022-11-21T03:57:30.780Z,17.90
2022-11-21T04:00:07.276Z,16.57
2022-11-21T04:02:46.523Z,16.97
2022-11-21T04:05:19.295Z,18.53
2022-11-21T04:07:56.103Z,19.00
2022-11-21T04:10:30.849Z,18.23
2022-11-21T04:13:02.359Z,19.63
2022-11-21T04:15:48.290Z,19.13
2022-11-21T04:18:38.399Z,19.77
2022-11-21T04:21:21.863Z,21.00
2022-11-21T04:23:58.953Z,20.33
2022-11-21T04:26:29.898Z,17.37
2022-11-21T04:29:03.382Z,18.73
2022-11-21T04:31:45.112Z,18.23
2022-11-21T04:34:16.939Z,18.40
2022-11-21T04:36:48.801Z,21.27
2022-11-21T04:39:22.739Z,17.87
2022-11-21T04:42:06.105Z,18.50
2022-11-21T04:44:39.706Z,15.80
2022-11-21T04:47:35.138Z,18.67
2022-11-21T04:50:07.963Z,16.80
2022-11-21T04:52:49.567Z,20.47
2022-11-21T04:55:20.898Z,19.13
2022-11-21T04:57:52.526Z,16.73
2022-11-21T05:00:25.248Z,17.30
2022-11-21T05:03:21.696Z,18.83
2022-11-21T05:06:00.554Z,17.73
2022-11-21T05:08:35.245Z,18.30
2022-11-21T05:11:33.269Z,17.37
2022-11-21T05:14:13.595Z,17.23
2022-11-21T05:20:32.316Z,21.63
2022-11-21T05:23:03.408Z,20.20
2022-11-21T05:25:31.130Z,17.37
2022-11-21T05:27:58.949Z,20.47
2022-11-21T05:30:26.666Z,18.40
2022-11-21T05:32:54.403Z,20.23
2022-11-21T05:35:22.219Z,16.87
2022-11-21T05:37:57.008Z,17.30
2022-11-21T05:40:24.933Z,20.17
2022-11-21T05:43:10.195Z,20.73
2022-11-21T05:45:37.894Z,21.43
2022-11-21T05:48:07.767Z,22.40
2022-11-21T05:50:36.424Z,17.47
2022-11-21T05:53:06.022Z,20.13
2022-11-21T05:55:35.318Z,23.60
2022-11-21T05:58:03.036Z,22.00
2022-11-21T06:00:31.064Z,23.67
2022-11-21T06:03:16.425Z,27.57
2022-11-21T06:05:44.160Z,25.97
2022-11-21T06:08:13.197Z,34.57
2022-11-21T06:10:40.907Z,41.93
2022-11-21T06:13:22.108Z,27.03
2022-11-21T06:15:54.755Z,30.03
2022-11-21T06:18:22.564Z,114.03
2022-11-21T06:20:50.988Z,37.57
2022-11-21T06:23:20.236Z,36.17
2022-11-21T06:25:47.929Z,59.93
2022-11-21T06:28:15.612Z,27.23
2022-11-21T06:30:43.305Z,19.27
2022-11-21T06:33:10.986Z,20.47
2022-11-21T06:35:40.056Z,25.33
2022-11-21T06:38:07.723Z,28.53
2022-11-21T06:40:36.819Z,33.83
2022-11-21T06:43:04.518Z,22.47
2022-11-21T06:45:32.429Z,23.27
2022-11-21T06:48:03.277Z,46.20
2022-11-21T06:50:32.217Z,58.60
2022-11-21T06:52:59.949Z,28.20
2022-11-21T06:55:28.705Z,20.90
2022-11-21T06:57:59.994Z,37.70
2022-11-21T07:00:29.005Z,36.77
2022-11-21T07:03:03.172Z,25.97
2022-11-21T07:05:32.177Z,37.47
2022-11-21T07:08:00.448Z,23.00
2022-11-21T07:10:28.412Z,39.90
2022-11-21T07:13:17.384Z,31.07
2022-11-21T07:15:45.935Z,28.57
2022-11-21T07:18:14.032Z,76.00
2022-11-21T07:20:42.159Z,117.53
2022-11-21T07:23:09.953Z,93.27
2022-11-21T07:25:39.441Z,28.33
2022-11-21T07:28:09.267Z,30.17
2022-11-21T07:30:37.594Z,66.13
2022-11-21T07:33:06.897Z,69.37
2022-11-21T07:35:35.371Z,53.10
2022-11-21T07:38:03.717Z,202.27
2022-11-21T07:40:33.752Z,73.83
2022-11-21T07:43:06.678Z,89.10
2022-11-21T07:45:39.901Z,37.20
2022-11-21T07:48:08.651Z,36.23
2022-11-21T07:50:36.729Z,81.97
2022-11-21T07:53:06.568Z,63.37
2022-11-21T07:55:40.197Z,36.40
2022-11-21T07:58:10.759Z,38.27
2022-11-21T08:00:42.698Z,35.63
2022-11-21T08:03:11.935Z,27.93
2022-11-21T08:05:40.407Z,51.30
2022-11-21T08:08:08.436Z,30.80
2022-11-21T08:10:38.667Z,32.77
2022-11-21T08:13:06.437Z,29.23
2022-11-21T08:15:34.199Z,31.13
2022-11-21T08:18:10.051Z,33.50
2022-11-21T08:20:37.777Z,54.67
2022-11-21T08:23:06.003Z,28.53
2022-11-21T08:25:33.865Z,30.20
2022-11-21T08:28:02.865Z,20.23
2022-11-21T08:30:31.127Z,26.57
2022-11-21T08:32:58.977Z,24.77
2022-11-21T08:35:28.307Z,29.10
2022-11-21T08:37:59.486Z,27.77
2022-11-21T08:40:29.089Z,25.10
2022-11-21T08:42:59.884Z,25.07
2022-11-21T08:45:28.068Z,24.07
2022-11-21T08:47:56.033Z,22.23
2022-11-21T08:50:24.217Z,27.30
2022-11-21T08:52:53.517Z,31.83
2022-11-21T08:55:23.011Z,25.73
2022-11-21T08:57:50.694Z,28.23
2022-11-21T09:00:18.579Z,26.73
2022-11-21T09:02:46.251Z,22.83
2022-11-21T09:05:13.965Z,22.27
2022-11-21T09:07:42.262Z,24.20
2022-11-21T09:10:11.744Z,25.60
2022-11-21T09:12:39.455Z,23.60
2022-11-21T09:15:25.679Z,23.00
2022-11-21T09:18:05.459Z,27.20
2022-11-21T09:20:34.248Z,28.30
2022-11-21T09:23:05.598Z,23.07
2022-11-21T09:25:34.785Z,26.93
2022-11-21T09:28:03.113Z,29.93
2022-11-21T09:30:30.828Z,28.40
2022-11-21T09:33:01.143Z,21.73
2022-11-21T09:35:28.847Z,27.07
2022-11-21T09:37:56.532Z,27.53
2022-11-21T09:40:24.423Z,33.47
2022-11-21T09:43:03.595Z,30.80
2022-11-21T09:45:34.492Z,36.20
2022-11-21T09:48:05.365Z,34.83
2022-11-21T09:50:36.683Z,38.10
2022-11-21T09:53:09.461Z,35.23
2022-11-21T09:55:43.190Z,34.23
2022-11-21T09:58:21.845Z,31.60
2022-11-21T10:00:52.550Z,37.37
2022-11-21T10:03:22.676Z,40.43
2022-11-21T10:05:55.220Z,38.80
2022-11-21T10:08:33.783Z,39.70
2022-11-21T10:11:19.374Z,38.13
2022-11-21T10:14:05.380Z,38.57
2022-11-21T10:16:44.553Z,39.67
2022-11-21T10:20:02.725Z,40.57
2022-11-21T10:23:00.090Z,36.90
2022-11-21T10:25:33.610Z,30.23
2022-11-21T10:28:07.695Z,29.40
2022-11-21T10:30:38.323Z,28.67
2022-11-21T10:33:12.771Z,26.77
2022-11-21T10:35:43.479Z,26.07
2022-11-21T10:38:21.726Z,28.03
2022-11-21T10:40:53.518Z,27.13
2022-11-21T10:43:51.282Z,24.70
2022-11-21T10:46:20.424Z,23.13
2022-11-21T10:48:57.868Z,24.40
2022-11-21T10:51:38.380Z,24.77
2022-11-21T10:54:26.808Z,26.43
2022-11-21T10:56:57.687Z,21.80
2022-11-21T10:59:30.931Z,22.80
2022-11-21T11:02:02.121Z,20.33
2022-11-21T11:04:44.096Z,21.70
2022-11-21T11:07:25.715Z,19.60
2022-11-21T11:09:54.298Z,22.47
2022-11-21T11:12:50.828Z,20.40
2022-11-21T11:15:20.927Z,27.43
2022-11-21T11:17:54.374Z,25.53
2022-11-21T11:20:35.459Z,22.73
2022-11-21T11:23:17.908Z,22.00
2022-11-21T11:25:50.180Z,21.73
2022-11-21T11:28:19.204Z,20.80
2022-11-21T11:30:48.826Z,21.30
2022-11-21T11:33:33.008Z,23.00
2022-11-21T11:36:15.905Z,22.17
2022-11-21T11:38:53.475Z,22.97
2022-11-21T11:41:57.054Z,25.03
2022-11-21T11:44:51.373Z,21.07
2022-11-21T11:47:32.773Z,20.70
2022-11-21T11:50:12.138Z,17.53
2022-11-21T11:52:49.327Z,20.60
2022-11-21T11:55:21.184Z,20.37
2022-11-21T11:57:50.296Z,21.37
2022-11-21T12:00:27.834Z,19.00
2022-11-21T12:03:01.921Z,12.07
2022-11-21T12:05:33.112Z,12.43
2022-11-21T12:11:22.396Z,11.30
2022-11-21T12:13:55.685Z,11.03
2022-11-21T12:16:26.838Z,11.83
2022-11-21T12:18:59.645Z,12.57
2022-11-21T12:21:29.818Z,11.83
2022-11-21T12:23:58.991Z,11.50
2022-11-21T12:26:40.509Z,12.60
2022-11-21T12:29:24.159Z,11.80
2022-11-21T12:32:09.844Z,10.83
2022-11-21T12:35:05.322Z,10.33
2022-11-21T12:37:44.282Z,12.30
2022-11-21T12:40:28.157Z,11.90
2022-11-21T12:43:07.540Z,11.67
2022-11-21T12:45:37.640Z,13.77
2022-11-21T12:48:36.915Z,14.47
2022-11-21T12:51:59.479Z,15.20
2022-11-21T12:55:03.203Z,10.67
2022-11-21T12:57:44.428Z,10.23
2022-11-21T13:00:18.602Z,9.73
2022-11-21T13:03:04.211Z,11.33
2022-11-21T13:05:36.422Z,11.07
2022-11-21T13:08:19.926Z,10.03
2022-11-21T13:11:18.166Z,9.97
2022-11-21T13:13:49.090Z,10.77
2022-11-21T13:16:37.007Z,11.33
2022-11-21T13:19:16.992Z,10.47
2022-11-21T13:21:47.784Z,10.90
2022-11-21T13:24:48.546Z,11.10
2022-11-21T13:27:31.043Z,11.70
2022-11-21T13:30:20.149Z,10.30
2022-11-21T13:32:49.800Z,10.77
2022-11-21T13:35:56.504Z,9.90
2022-11-21T13:38:24.147Z,10.43
2022-11-21T13:41:05.801Z,9.80
2022-11-21T13:43:35.700Z,9.27
2022-11-21T13:46:03.718Z,9.73
2022-11-21T13:48:59.908Z,10.20
2022-11-21T13:51:50.104Z,10.17
2022-11-21T13:54:45.080Z,9.93
2022-11-21T13:57:26.900Z,7.80
2022-11-21T14:00:19.812Z,7.83
2022-11-21T14:03:30.096Z,8.83
2022-11-21T14:06:20.122Z,9.23
2022-11-21T14:09:08.710Z,7.77
2022-11-21T14:11:41.301Z,6.93
2022-11-21T14:14:10.356Z,7.57
2022-11-21T14:16:47.044Z,8.90
2022-11-21T14:19:18.985Z,7.70
2022-11-21T14:21:47.439Z,7.93
2022-11-21T14:24:18.676Z,7.87
2022-11-21T14:26:49.227Z,9.37
2022-11-21T14:29:22.587Z,8.00
2022-11-21T14:31:51.816Z,8.20
2022-11-21T14:34:26.857Z,7.60
2022-11-21T14:36:56.364Z,8.80
2022-11-21T14:39:38.695Z,8.33
2022-11-21T14:42:13.925Z,8.87
2022-11-21T14:44:41.880Z,9.87
2022-11-21T14:47:21.472Z,10.50
2022-11-21T14:49:54.515Z,8.57
2022-11-21T14:52:25.999Z,10.17
2022-11-21T14:57:45.610Z,8.73
2022-11-21T15:00:43.173Z,8.87
2022-11-21T15:03:19.611Z,8.73
2022-11-21T15:06:01.824Z,10.30
2022-11-21T15:11:19.419Z,9.07
2022-11-21T15:16:37.685Z,9.83
2022-11-21T15:19:12.068Z,9.20
2022-11-21T15:21:46.390Z,9.40
2022-11-21T15:24:18.800Z,12.90
2022-11-21T15:26:47.379Z,12.30
2022-11-21T15:29:22.638Z,12.20
2022-11-21T15:32:09.156Z,11.77
2022-11-21T15:34:39.655Z,12.47
2022-11-21T15:37:16.239Z,10.53
2022-11-21T15:39:45.296Z,11.77
2022-11-21T15:42:38.359Z,10.10
2022-11-21T15:45:23.212Z,12.80
2022-11-21T15:47:50.981Z,10.00
2022-11-21T15:50:24.409Z,11.97
2022-11-21T15:52:53.358Z,14.90
2022-11-21T15:55:23.559Z,13.10
2022-11-21T15:57:14.777Z,10.57
2022-11-21T15:57:51.269Z,10.67
2022-11-21T16:00:19.252Z,18.97
2022-11-21T16:02:47.390Z,9.77
2022-11-21T16:05:16.447Z,16.70
2022-11-21T16:07:45.512Z,13.27
2022-11-21T16:10:19.735Z,13.77
2022-11-21T16:12:48.947Z,11.17
2022-11-21T16:15:16.919Z,11.50
2022-11-21T16:17:45.596Z,10.57
2022-11-21T16:20:14.047Z,10.20
2022-11-21T16:22:47.076Z,13.63
2022-11-21T16:25:17.197Z,10.63
2022-11-21T16:27:44.931Z,8.17
2022-11-21T16:30:13.288Z,9.03
2022-11-21T16:32:40.988Z,10.20
2022-11-21T16:35:09.484Z,9.30
2022-11-21T16:37:37.235Z,9.60
2022-11-21T16:40:05.779Z,11.43
2022-11-21T16:42:34.845Z,9.20
2022-11-21T16:45:02.532Z,13.30
2022-11-21T16:47:30.509Z,11.43
2022-11-21T16:49:58.201Z,13.27
2022-11-21T16:52:26.264Z,14.07
2022-11-21T16:54:53.983Z,12.03
2022-11-21T16:57:21.672Z,11.30
2022-11-21T16:59:50.737Z,10.67
2022-11-21T17:02:18.455Z,9.70
2022-11-21T17:04:47.056Z,11.00
2022-11-21T17:07:14.840Z,9.43
2022-11-21T17:09:42.576Z,10.60
2022-11-21T17:12:10.383Z,10.60
2022-11-21T17:14:38.169Z,10.73
2022-11-21T17:17:07.201Z,6.83
2022-11-21T17:19:34.959Z,8.37
2022-11-21T17:22:02.624Z,10.13
2022-11-21T17:24:30.613Z,9.43
2022-11-21T17:27:00.505Z,9.23
2022-11-21T17:29:28.299Z,8.07
2022-11-21T17:31:56.264Z,12.07
2022-11-21T17:34:31.281Z,7.20
2022-11-21T17:37:00.606Z,7.27
2022-11-21T17:39:30.161Z,9.23
2022-11-21T17:41:59.309Z,8.90
2022-11-21T17:44:27.496Z,11.43
2022-11-21T17:46:57.671Z,10.73
2022-11-21T17:49:29.921Z,10.93
2022-11-21T17:51:57.852Z,11.33
2022-11-21T17:54:25.590Z,9.97
2022-11-21T17:56:56.822Z,12.13
2022-11-21T17:59:24.901Z,11.43
2022-11-21T18:01:52.732Z,7.43
2022-11-21T18:04:20.729Z,11.13
2022-11-21T18:06:49.806Z,13.23
2022-11-21T18:09:18.436Z,11.90
2022-11-21T18:11:46.464Z,9.23
2022-11-21T18:14:14.965Z,10.73
2022-11-21T18:16:49.382Z,13.17
2022-11-21T18:19:20.941Z,11.43
2022-11-21T18:21:50.032Z,12.57
2022-11-21T18:24:17.891Z,12.07
2022-11-21T18:26:46.964Z,6.93
2022-11-21T18:32:03.253Z,13.33
2022-11-21T18:34:30.953Z,10.70
2022-11-21T18:37:00.087Z,16.23
2022-11-21T18:39:28.005Z,11.97
2022-11-21T18:41:55.892Z,13.00
2022-11-21T18:44:23.744Z,13.80
2022-11-21T18:46:51.640Z,8.53
2022-11-21T18:49:19.504Z,15.23
2022-11-21T18:51:48.579Z,13.87
2022-11-21T18:54:17.959Z,17.43
2022-11-21T18:56:47.010Z,13.87
2022-11-21T18:59:15.192Z,11.47
2022-11-21T19:01:43.264Z,13.33
2022-11-21T19:04:11.110Z,11.60
2022-11-21T19:06:38.965Z,11.43
2022-11-21T19:09:08.165Z,10.53
2022-11-21T19:11:37.323Z,12.90
2022-11-21T19:14:05.216Z,11.10
2022-11-21T19:16:34.319Z,14.23
2022-11-21T19:19:33.112Z,23.40
2022-11-21T19:21:50.680Z,6.60
2022-11-21T19:24:19.428Z,10.47
2022-11-21T19:26:50.355Z,14.87
2022-11-21T19:29:18.929Z,9.77
2022-11-21T19:31:46.643Z,10.40
2022-11-21T19:34:14.864Z,12.53
2022-11-21T19:36:43.310Z,12.83
2022-11-21T19:39:11.449Z,13.00
2022-11-21T19:41:39.277Z,7.17
2022-11-21T19:44:08.406Z,15.37
2022-11-21T19:46:37.787Z,13.43
2022-11-21T19:49:06.702Z,12.33
2022-11-21T19:51:35.943Z,13.90
2022-11-21T19:54:04.442Z,11.90
2022-11-21T19:56:32.436Z,18.23
2022-11-21T19:59:00.424Z,16.97
2022-11-21T20:01:31.347Z,13.40
2022-11-21T20:04:01.400Z,15.47
2022-11-21T20:06:31.109Z,14.13
2022-11-21T20:09:00.979Z,16.20
2022-11-21T20:11:30.948Z,11.93
2022-11-21T20:13:58.706Z,13.47
2022-11-21T20:16:30.424Z,12.13
2022-11-21T20:19:00.342Z,15.63
2022-11-21T20:21:28.653Z,14.73
2022-11-21T20:23:56.419Z,14.17
2022-11-21T20:26:25.315Z,11.73
2022-11-21T20:28:53.341Z,10.67
2022-11-21T20:31:22.672Z,11.80
2022-11-21T20:33:53.304Z,12.07
2022-11-21T20:36:22.645Z,10.07
2022-11-21T20:38:52.102Z,11.77
2022-11-21T20:41:19.867Z,13.33
2022-11-21T20:44:53.222Z,13.90
2022-11-21T20:46:35.939Z,12.77
2022-11-21T20:49:05.003Z,14.03
2022-11-21T20:53:06.194Z,12.23
2022-11-21T20:54:20.362Z,11.00
2022-11-21T20:56:48.359Z,12.53
2022-11-21T20:59:16.094Z,16.40
2022-11-21T21:01:44.045Z,12.40
2022-11-21T21:04:14.181Z,11.13
2022-11-21T21:06:41.917Z,16.00
2022-11-21T21:09:09.621Z,12.07
2022-11-21T21:11:51.420Z,12.63
2022-11-21T21:14:20.544Z,10.53
2022-11-21T21:16:48.487Z,14.73
2022-11-21T21:19:17.695Z,15.10
2022-11-21T21:21:45.719Z,11.90
2022-11-21T21:24:14.277Z,9.80
2022-11-21T21:26:44.401Z,9.70
2022-11-21T21:29:13.485Z,12.50
2022-11-21T21:31:45.524Z,14.80
2022-11-21T21:34:18.915Z,16.23
2022-11-21T21:36:46.926Z,15.03
2022-11-21T21:39:14.707Z,13.77
2022-11-21T21:41:44.798Z,13.67
2022-11-21T21:44:12.845Z,15.57
2022-11-21T21:46:40.762Z,13.67
2022-11-21T21:49:08.879Z,17.73
2022-11-21T21:51:38.938Z,12.23
2022-11-21T21:54:07.487Z,10.80
2022-11-21T21:56:35.466Z,11.07
2022-11-21T21:59:03.415Z,13.90
2022-11-21T22:01:33.049Z,14.03
2022-11-21T22:04:02.948Z,15.23
2022-11-21T22:06:31.368Z,14.93
2022-11-21T22:09:00.763Z,12.03
2022-11-21T22:11:30.376Z,13.20
2022-11-21T22:13:59.784Z,13.33
2022-11-21T22:16:28.522Z,11.87
2022-11-21T22:18:56.906Z,13.53
2022-11-21T22:21:27.698Z,12.23
2022-11-21T22:24:23.549Z,15.30
2022-11-21T22:26:46.185Z,8.37
2022-11-21T22:29:13.941Z,17.33
2022-11-21T22:31:41.621Z,15.97
2022-11-21T22:34:10.959Z,12.83
2022-11-21T22:36:38.845Z,19.40
2022-11-21T22:39:06.553Z,17.37
2022-11-21T22:41:34.749Z,16.77
2022-11-21T22:44:03.966Z,19.03
2022-11-21T22:46:31.866Z,17.80
2022-11-21T22:48:59.925Z,10.27
2022-11-21T22:51:30.139Z,10.37
2022-11-21T22:53:58.672Z,20.17
2022-11-21T22:56:27.184Z,19.37
2022-11-21T22:58:55.067Z,8.87
2022-11-21T23:01:26.290Z,15.07
2022-11-21T23:03:56.587Z,12.40
2022-11-21T23:06:26.096Z,24.10
2022-11-21T23:08:55.596Z,14.73
2022-11-21T23:11:26.143Z,18.20
2022-11-21T23:13:55.358Z,25.00
2022-11-21T23:16:25.334Z,14.00
2022-11-21T23:18:53.898Z,15.63
2022-11-21T23:21:23.314Z,24.20
2022-11-21T23:23:52.940Z,26.77
2022-11-21T23:26:21.013Z,19.77
2022-11-21T23:28:48.992Z,30.03
2022-11-21T23:31:17.143Z,27.83
2022-11-21T23:33:46.277Z,28.47
2022-11-21T23:36:14.276Z,29.33
2022-11-21T23:38:42.055Z,29.93
2022-11-21T23:41:09.816Z,38.10
2022-11-21T23:43:37.668Z,32.07
2022-11-21T23:46:08.378Z,42.17
2022-11-21T23:48:36.548Z,28.43
2022-11-21T23:51:05.698Z,25.53
2022-11-21T23:53:33.432Z,23.33
2022-11-21T23:56:01.203Z,22.00
2022-11-21T23:58:29.027Z,37.00
